Time;durP1;ratioP1;P1;durP2;ratioP2;P2;SDS_P1;SDS_P2;PMS_P1;PMS_P2;Temp;Humidity;BMP_temperature;BMP_pressure;BME280_temperature;BME280_humidity;BME280_pressure;Samples;Min_cycle;Max_cycle;Signal;HPM_P1;HPM_P2
2021/01/07 00:00:20;;;;;;;55.20;30.88;;;;;;;1.33;97.26;100405.84;1731994;82;21046;-67
2021/01/07 00:02:48;;;;;;;57.98;30.32;;;;;;;1.32;97.25;100396.45;1731947;82;22096;-67
2021/01/07 00:05:16;;;;;;;56.08;30.25;;;;;;;1.34;97.21;100393.86;1731885;82;21512;-67
2021/01/07 00:07:44;;;;;;;56.10;30.48;;;;;;;1.33;97.07;100387.89;1731918;82;20974;-67
2021/01/07 00:10:14;;;;;;;56.77;28.92;;;;;;;1.31;97.05;100392.19;1731928;82;21026;-67
2021/01/07 00:12:43;;;;;;;57.48;29.90;;;;;;;1.33;97.08;100394.30;1731886;82;21512;-66
2021/01/07 00:15:12;;;;;;;58.92;30.37;;;;;;;1.33;96.94;100394.73;1731875;81;21417;-67
2021/01/07 00:17:40;;;;;;;63.30;32.38;;;;;;;1.32;97.00;100389.19;1731864;82;20982;-68
2021/01/07 00:20:11;;;;;;;58.00;30.70;;;;;;;1.33;97.02;100386.60;1731932;82;21461;-67
2021/01/07 00:22:39;;;;;;;54.80;29.23;;;;;;;1.33;97.06;100389.17;1731917;82;21022;-68
2021/01/07 00:25:09;;;;;;;59.75;29.30;;;;;;;1.33;96.97;100386.60;1731888;82;20978;-69
2021/01/07 00:27:38;;;;;;;61.30;30.57;;;;;;;1.33;96.96;100385.75;1731891;82;21599;-68
2021/01/07 00:30:07;;;;;;;56.95;29.65;;;;;;;1.33;96.99;100380.63;1731840;82;21046;-68
2021/01/07 00:32:36;;;;;;;54.30;29.12;;;;;;;1.34;96.93;100384.89;1731902;82;21042;-67
2021/01/07 00:35:05;;;;;;;54.00;29.82;;;;;;;1.34;96.93;100377.19;1723119;82;20924;-68
2021/01/07 00:37:35;;;;;;;51.80;28.05;;;;;;;1.34;96.90;100380.61;1719153;83;21043;-68
2021/01/07 00:40:04;;;;;;;55.00;28.35;;;;;;;1.33;96.90;100372.49;1719113;82;21362;-68
2021/01/07 00:42:33;;;;;;;54.85;28.57;;;;;;;1.34;96.85;100366.92;1719033;83;22155;-67
2021/01/07 00:45:01;;;;;;;53.60;27.73;;;;;;;1.32;96.77;100362.25;1719083;83;20959;-67
2021/01/07 00:47:29;;;;;;;55.88;28.23;;;;;;;1.31;96.74;100367.81;1719074;83;21027;-64
2021/01/07 00:49:58;;;;;;;54.55;30.02;;;;;;;1.30;96.77;100362.70;1719101;83;21019;-67
2021/01/07 00:52:26;;;;;;;52.67;28.17;;;;;;;1.29;96.74;100364.86;1719069;83;21194;-68
2021/01/07 00:54:55;;;;;;;55.25;30.37;;;;;;;1.26;96.68;100359.77;1718990;83;21556;-67
2021/01/07 00:57:23;;;;;;;59.85;31.30;;;;;;;1.23;96.77;100364.92;1719079;83;21525;-67
2021/01/07 00:59:51;;;;;;;57.33;29.05;;;;;;;1.22;96.81;100361.52;1719156;83;21094;-68
2021/01/07 01:02:20;;;;;;;53.60;28.70;;;;;;;1.19;96.80;100358.17;1719131;83;20967;-67
2021/01/07 01:04:49;;;;;;;53.60;27.70;;;;;;;1.17;96.83;100358.63;1719107;83;21611;-68
2021/01/07 01:07:17;;;;;;;54.35;29.12;;;;;;;1.12;96.81;100359.96;1719033;83;21635;-68
2021/01/07 01:09:45;;;;;;;49.80;27.37;;;;;;;1.08;96.93;100354.88;1719090;83;21544;-68
2021/01/07 01:12:14;;;;;;;51.85;28.07;;;;;;;1.05;97.06;100353.64;1719033;83;21553;-65
2021/01/07 01:14:42;;;;;;;54.75;29.37;;;;;;;1.01;97.11;100346.41;1719049;83;21512;-65
2021/01/07 01:17:11;;;;;;;57.75;30.80;;;;;;;0.97;97.21;100348.16;1719079;83;21936;-64
2021/01/07 01:19:39;;;;;;;57.53;30.60;;;;;;;0.97;97.42;100343.47;1719070;83;21517;-65
2021/01/07 01:22:07;;;;;;;54.77;28.85;;;;;;;0.98;97.64;100343.89;1719149;83;21600;-67
2021/01/07 01:24:35;;;;;;;52.25;29.98;;;;;;;1.00;97.73;100343.44;1719123;83;21640;-68
2021/01/07 01:27:04;;;;;;;55.73;29.07;;;;;;;1.01;97.65;100351.55;1719074;83;20996;-67
2021/01/07 01:29:32;;;;;;;53.45;28.65;;;;;;;1.02;97.74;100347.27;1719028;83;21140;-65
2021/01/07 01:32:01;;;;;;;53.00;28.38;;;;;;;1.04;97.82;100350.22;1718981;83;20999;-67
2021/01/07 01:34:30;;;;;;;50.10;27.73;;;;;;;1.08;97.90;100347.19;1722772;82;21014;-66
2021/01/07 01:37:07;;;;;;;53.95;28.70;;;;;;;1.11;97.88;100353.13;1731964;82;21642;-64
2021/01/07 01:39:36;;;;;;;54.50;30.40;;;;;;;1.12;97.77;100352.27;1732133;82;21484;-68
2021/01/07 01:42:05;;;;;;;51.00;28.92;;;;;;;1.14;97.75;100359.51;1732008;82;22168;-64
2021/01/07 01:44:34;;;;;;;60.08;30.40;;;;;;;1.15;97.73;100356.08;1731932;82;20979;-65
2021/01/07 01:47:02;;;;;;;51.90;29.30;;;;;;;1.16;97.71;100350.52;1731950;82;20974;-67
2021/01/07 01:49:31;;;;;;;51.90;28.32;;;;;;;1.17;97.67;100344.08;1731969;82;21580;-65
2021/01/07 01:51:59;;;;;;;54.27;29.48;;;;;;;1.17;97.56;100338.95;1732114;82;21433;-67
2021/01/07 01:54:27;;;;;;;47.55;27.90;;;;;;;1.14;97.51;100331.30;1731901;82;21200;-67
2021/01/07 01:56:56;;;;;;;51.75;28.67;;;;;;;1.15;97.49;100337.27;1731919;82;21033;-67
2021/01/07 01:59:26;;;;;;;51.98;27.93;;;;;;;1.15;97.50;100339.84;1731936;82;20975;-67
2021/01/07 02:01:54;;;;;;;54.53;29.87;;;;;;;1.14;97.53;100340.27;1731941;82;20959;-67
2021/01/07 02:04:23;;;;;;;55.20;29.10;;;;;;;1.14;97.61;100339.42;1731985;82;20963;-66
2021/01/07 02:06:51;;;;;;;48.35;27.10;;;;;;;1.16;97.67;100342.81;1732088;82;22341;-68
2021/01/07 02:09:19;;;;;;;53.17;29.20;;;;;;;1.19;97.70;100353.05;1678567;82;21021;-67
2021/01/07 02:11:48;;;;;;;50.38;27.58;;;;;;;1.22;97.61;100358.10;1731925;82;21042;-68
2021/01/07 02:14:17;;;;;;;52.33;28.40;;;;;;;1.22;97.64;100358.10;1731994;82;20946;-67
2021/01/07 02:16:45;;;;;;;48.00;26.65;;;;;;;1.23;97.50;100358.08;1731987;82;20978;-67
2021/01/07 02:19:13;;;;;;;46.70;26.42;;;;;;;1.24;97.49;100361.06;1731977;82;21265;-68
2021/01/07 02:21:42;;;;;;;48.30;26.68;;;;;;;1.25;97.41;100349.94;1732078;82;20987;-68
2021/01/07 02:24:10;;;;;;;50.20;26.82;;;;;;;1.27;97.33;100353.33;1732063;82;21603;-68
2021/01/07 02:26:38;;;;;;;52.90;28.98;;;;;;;1.28;97.30;100343.92;1731944;82;21492;-65
2021/01/07 02:29:07;;;;;;;50.85;28.38;;;;;;;1.27;97.22;100343.06;1732003;82;21595;-65
2021/01/07 02:31:35;;;;;;;52.93;28.40;;;;;;;1.28;97.21;100339.63;1731980;82;21359;-65
2021/01/07 02:34:03;;;;;;;49.23;27.27;;;;;;;1.28;97.23;100330.66;1731941;82;21565;-67
2021/01/07 02:36:32;;;;;;;46.60;25.85;;;;;;;1.31;97.15;100331.05;1731944;82;21512;-67
2021/01/07 02:39:00;;;;;;;51.10;28.23;;;;;;;1.31;97.06;100320.36;1731888;82;21627;-65
2021/01/07 02:41:29;;;;;;;46.00;26.77;;;;;;;1.31;96.90;100319.07;1732003;82;21055;-66
2021/01/07 02:43:57;;;;;;;48.10;26.80;;;;;;;1.28;96.77;100320.39;1731970;82;22239;-67
2021/01/07 02:46:26;;;;;;;46.30;26.20;;;;;;;1.25;96.85;100326.00;1731903;82;21675;-66
2021/01/07 02:48:54;;;;;;;46.25;25.08;;;;;;;1.25;96.94;100315.30;1731965;82;21531;-67
2021/01/07 02:51:22;;;;;;;44.27;25.05;;;;;;;1.25;96.98;100308.89;1731919;82;21516;-67
2021/01/07 02:53:52;;;;;;;47.05;25.82;;;;;;;1.25;96.96;100315.30;1731958;82;21501;-67
2021/01/07 02:56:21;;;;;;;47.83;26.87;;;;;;;1.26;96.98;100310.59;1731903;82;22107;-67
2021/01/07 02:58:49;;;;;;;44.23;25.32;;;;;;;1.25;96.92;100317.88;1731933;82;21638;-67
2021/01/07 03:01:18;;;;;;;43.38;23.60;;;;;;;1.26;96.99;100315.72;1731929;82;21157;-66
2021/01/07 03:03:46;;;;;;;45.63;25.10;;;;;;;1.27;97.00;100322.98;1731890;82;21703;-68
2021/01/07 03:06:14;;;;;;;48.83;26.35;;;;;;;1.27;96.85;100322.55;1732072;82;21587;-68
2021/01/07 03:08:43;;;;;;;47.90;26.57;;;;;;;1.25;96.82;100317.88;1731952;82;22103;-67
2021/01/07 03:11:11;;;;;;;46.18;25.75;;;;;;;1.24;96.92;100313.61;1731905;82;21366;-67
2021/01/07 03:13:40;;;;;;;43.48;25.37;;;;;;;1.26;96.94;100318.28;1731914;82;21587;-68
2021/01/07 03:16:08;;;;;;;56.30;34.40;;;;;;;1.25;96.94;100307.61;1731901;82;21623;-67
2021/01/07 03:18:37;;;;;;;52.98;30.30;;;;;;;1.27;96.94;100308.88;1731992;82;21575;-67
2021/01/07 03:21:05;;;;;;;55.98;31.60;;;;;;;1.27;96.87;100307.16;1731950;82;22364;-67
2021/01/07 03:23:33;;;;;;;53.48;28.65;;;;;;;1.25;96.81;100308.89;1731886;82;21401;-68
2021/01/07 03:26:02;;;;;;;54.50;29.87;;;;;;;1.24;96.86;100302.50;1731947;82;21598;-68
2021/01/07 03:28:30;;;;;;;48.85;28.00;;;;;;;1.21;96.90;100298.26;1731962;82;21525;-68
2021/01/07 03:30:58;;;;;;;55.43;30.20;;;;;;;1.20;96.95;100295.75;1731924;82;21627;-68
2021/01/07 03:33:28;;;;;;;123.65;67.30;;;;;;;1.18;96.94;100288.08;1731905;82;22399;-68
2021/01/07 03:35:56;;;;;;;74.15;39.55;;;;;;;1.16;97.02;100287.24;1723980;82;21703;-68
2021/01/07 03:38:24;;;;;;;98.07;48.63;;;;;;;1.14;97.01;100282.57;1718985;83;21633;-68
2021/01/07 03:40:52;;;;;;;119.97;57.35;;;;;;;1.12;97.13;100280.45;1718898;83;21557;-67
2021/01/07 03:43:21;;;;;;;79.62;43.58;;;;;;;1.10;97.15;100270.66;1718927;83;21508;-68
2021/01/07 03:45:50;;;;;;;60.28;35.00;;;;;;;1.08;97.27;100266.41;1718977;83;22198;-68
2021/01/07 03:48:18;;;;;;;58.33;31.97;;;;;;;1.08;97.35;100260.00;1718903;83;21639;-67
2021/01/07 03:50:47;;;;;;;53.35;31.02;;;;;;;1.07;97.35;100252.75;1718961;83;21619;-68
2021/01/07 03:53:15;;;;;;;57.15;31.93;;;;;;;1.06;97.47;100242.08;1718926;83;20959;-68
2021/01/07 03:55:43;;;;;;;60.12;32.80;;;;;;;1.07;97.51;100236.08;1718949;83;21525;-68
2021/01/07 03:58:12;;;;;;;60.43;33.70;;;;;;;1.09;97.56;100234.77;1718952;83;21193;-68
2021/01/07 04:00:41;;;;;;;58.95;31.10;;;;;;;1.10;97.48;100232.63;1718937;83;20995;-68
2021/01/07 04:03:09;;;;;;;50.78;28.45;;;;;;;1.06;97.43;100222.84;1718958;83;21600;-67
2021/01/07 04:05:38;;;;;;;53.58;30.77;;;;;;;1.04;97.52;100215.61;1718927;83;21588;-67
2021/01/07 04:08:06;;;;;;;50.95;30.17;;;;;;;1.05;97.63;100213.45;1719076;83;21634;-67
2021/01/07 04:10:35;;;;;;;53.83;30.48;;;;;;;1.05;97.69;100206.20;1719199;83;22144;-68
2021/01/07 04:13:04;;;;;;;52.17;27.10;;;;;;;1.05;97.73;100200.63;1719068;83;21521;-67
2021/01/07 04:15:33;;;;;;;45.75;26.80;;;;;;;1.06;97.81;100202.33;1719080;83;21525;-67
2021/01/07 04:18:01;;;;;;;53.17;30.48;;;;;;;1.05;97.73;100198.07;1719118;83;21398;-65
2021/01/07 04:20:29;;;;;;;55.73;30.65;;;;;;;1.06;97.80;100201.05;1719221;83;21580;-65
2021/01/07 04:22:57;;;;;;;51.40;28.32;;;;;;;1.05;97.81;100199.35;1719096;83;21972;-64
2021/01/07 04:25:26;;;;;;;51.53;28.38;;;;;;;1.06;97.83;100189.51;1719055;83;21686;-64
2021/01/07 04:27:54;;;;;;;45.80;26.68;;;;;;;1.07;97.87;100187.36;1719128;83;21505;-64
2021/01/07 04:30:23;;;;;;;51.65;29.27;;;;;;;1.08;97.89;100185.64;1719088;83;21592;-64
2021/01/07 04:32:51;;;;;;;47.30;27.55;;;;;;;1.08;97.94;100176.66;1719138;83;21549;-64
2021/01/07 04:35:20;;;;;;;42.45;24.52;;;;;;;1.12;97.99;100166.77;1721597;82;22157;-64
2021/01/07 04:37:48;;;;;;;44.10;23.25;;;;;;;1.16;97.93;100170.98;1731979;82;21038;-63
2021/01/07 04:40:16;;;;;;;45.05;25.20;;;;;;;1.18;97.84;100168.81;1732036;82;21058;-64
2021/01/07 04:42:45;;;;;;;39.48;25.50;;;;;;;1.21;97.74;100167.45;1732055;82;21536;-63
2021/01/07 04:45:14;;;;;;;35.38;23.70;;;;;;;1.23;97.55;100166.14;1732056;82;21591;-64
2021/01/07 04:47:44;;;;;;;36.75;22.45;;;;;;;1.24;97.48;100167.84;1731812;82;21915;-64
2021/01/07 04:50:14;;;;;;;45.95;26.90;;;;;;;1.24;97.31;100165.27;1677899;82;21001;-64
2021/01/07 04:52:42;;;;;;;39.18;24.18;;;;;;;1.23;97.23;100164.42;1732056;82;20951;-65
2021/01/07 04:55:11;;;;;;;39.13;25.25;;;;;;;1.23;97.25;100162.30;1732067;82;21056;-67
2021/01/07 04:57:40;;;;;;;54.75;37.67;;;;;;;1.23;97.21;100168.70;1732042;82;21586;-67
2021/01/07 05:00:12;;;;;;;34.75;22.10;;;;;;;1.22;97.24;100164.02;1732000;82;21266;-67
2021/01/07 05:02:40;;;;;;;38.88;24.25;;;;;;;1.22;97.16;100160.60;1732063;82;21029;-67
2021/01/07 05:05:09;;;;;;;32.60;21.95;;;;;;;1.21;97.05;100155.91;1732020;82;21022;-68
2021/01/07 05:07:38;;;;;;;58.98;36.88;;;;;;;1.20;97.10;100154.69;1731993;82;21045;-67
2021/01/07 05:10:09;;;;;;;42.03;26.27;;;;;;;1.18;97.06;100158.98;1732121;82;21030;-67
2021/01/07 05:12:38;;;;;;;38.42;25.70;;;;;;;1.17;97.15;100154.73;1732147;82;22211;-67
2021/01/07 05:15:09;;;;;;;32.15;21.93;;;;;;;1.17;97.21;100165.83;1731933;82;21675;-67
2021/01/07 05:17:37;;;;;;;36.38;23.77;;;;;;;1.20;97.29;100166.22;1732011;82;21058;-65
2021/01/07 05:20:13;;;;;;;32.58;20.00;;;;;;;1.20;97.26;100161.09;1732046;82;21527;-64
2021/01/07 05:22:43;;;;;;;35.50;22.70;;;;;;;1.22;97.55;100165.30;1732207;82;20970;-65
2021/01/07 05:25:15;;;;;;;30.15;20.57;;;;;;;1.28;98.01;100161.79;1732017;82;21200;-66
2021/01/07 05:27:44;;;;;;;34.38;23.05;;;;;;;1.34;97.85;100159.13;1731979;82;21504;-65
2021/01/07 05:30:14;;;;;;;28.70;19.02;;;;;;;1.38;97.63;100163.34;1732091;82;21520;-67
2021/01/07 05:32:43;;;;;;;28.70;18.62;;;;;;;1.39;97.20;100152.64;1731992;82;20922;-66
2021/01/07 05:35:20;;;;;;;28.30;18.40;;;;;;;1.37;96.92;100155.66;1731951;82;20971;-67
2021/01/07 05:37:48;;;;;;;33.35;20.82;;;;;;;1.37;97.01;100149.25;1732030;82;21591;-67
2021/01/07 05:40:17;;;;;;;35.17;22.40;;;;;;;1.36;97.00;100149.69;1731959;82;21519;-67
2021/01/07 05:42:46;;;;;;;37.13;23.85;;;;;;;1.38;97.16;100149.66;1732001;82;21397;-67
2021/01/07 05:45:18;;;;;;;28.38;21.07;;;;;;;1.44;97.45;100150.84;1732070;82;22017;-65
2021/01/07 05:47:51;;;;;;;33.75;20.77;;;;;;;1.50;97.37;100154.16;1732063;82;21631;-66
2021/01/07 05:50:20;;;;;;;26.93;20.32;;;;;;;1.55;97.15;100157.50;1732087;82;21174;-65
2021/01/07 05:52:49;;;;;;;24.90;18.37;;;;;;;1.56;96.75;100162.19;1731856;82;20951;-66
2021/01/07 05:55:19;;;;;;;29.75;21.60;;;;;;;1.59;96.61;100157.86;1731970;82;21038;-64
2021/01/07 05:57:48;;;;;;;30.37;22.10;;;;;;;1.62;96.09;100147.94;1731952;82;21065;-66
2021/01/07 06:00:17;;;;;;;33.55;22.87;;;;;;;1.60;95.82;100151.00;1731987;82;21551;-66
2021/01/07 06:02:47;;;;;;;30.35;21.10;;;;;;;1.59;95.70;100146.30;1731989;82;21136;-65
2021/01/07 06:05:16;;;;;;;26.15;20.45;;;;;;;1.59;95.75;100146.73;1725204;82;21615;-65
2021/01/07 06:07:44;;;;;;;27.35;18.77;;;;;;;1.61;96.02;100148.81;1731971;82;21533;-65
2021/01/07 06:10:16;;;;;;;23.20;17.55;;;;;;;1.65;96.03;100160.72;1731874;82;21639;-65
2021/01/07 06:12:44;;;;;;;25.40;17.57;;;;;;;1.64;95.29;100163.72;1732034;82;21505;-63
2021/01/07 06:15:16;;;;;;;27.55;18.20;;;;;;;1.59;95.24;100162.14;1732153;82;22100;-63
2021/01/07 06:17:45;;;;;;;25.25;18.02;;;;;;;1.57;95.52;100154.91;1731936;82;20967;-65
2021/01/07 06:20:21;;;;;;;23.25;18.20;;;;;;;1.60;95.64;100159.98;1732060;82;21441;-63
2021/01/07 06:22:53;;;;;;;24.15;16.40;;;;;;;1.59;95.29;100155.72;1729035;82;20978;-63
2021/01/07 06:25:22;;;;;;;23.42;17.92;;;;;;;1.55;95.16;100158.78;1732004;82;20974;-64
2021/01/07 06:27:54;;;;;;;24.65;18.05;;;;;;;1.49;95.29;100148.61;1732047;82;22098;-63
2021/01/07 06:30:31;;;;;;;24.65;18.37;;;;;;;1.45;95.56;100144.41;1731995;82;20975;-63
2021/01/07 06:33:09;;;;;;;24.87;19.80;;;;;;;1.45;95.64;100153.83;1731433;82;21339;-65
2021/01/07 06:35:42;;;;;;;26.60;19.10;;;;;;;1.47;95.89;100154.64;1731208;82;21651;-67
2021/01/07 06:38:13;;;;;;;25.48;17.70;;;;;;;1.50;96.04;100155.87;1718556;83;21066;-66
2021/01/07 06:40:42;;;;;;;22.58;16.82;;;;;;;1.50;95.84;100157.16;1717578;83;22334;-67
2021/01/07 06:43:15;;;;;;;24.47;17.60;;;;;;;1.53;96.23;100160.52;1718904;83;21548;-68
2021/01/07 06:45:51;;;;;;;21.35;15.05;;;;;;;1.57;95.77;100158.31;1718992;83;20968;-68
2021/01/07 06:48:30;;;;;;;19.70;15.72;;;;;;;1.59;95.53;100165.98;1718965;83;21051;-68
2021/01/07 06:50:59;;;;;;;23.90;17.87;;;;;;;1.57;95.50;100157.47;1719078;83;21508;-68
2021/01/07 06:53:28;;;;;;;22.20;15.75;;;;;;;1.58;95.57;100161.30;1719011;83;21337;-68
2021/01/07 06:56:19;;;;;;;24.77;18.17;;;;;;;1.55;95.34;100157.50;1718907;83;21520;-65
2021/01/07 06:58:48;;;;;;;28.47;19.30;;;;;;;1.53;95.37;100157.95;1718984;83;21023;-66
2021/01/07 07:01:18;;;;;;;28.92;20.30;;;;;;;1.53;95.49;100160.95;1718934;83;21035;-65
2021/01/07 07:03:49;;;;;;;43.28;30.08;;;;;;;1.52;95.53;100152.41;1718987;83;21649;-66
2021/01/07 07:06:19;;;;;;;35.40;24.95;;;;;;;1.52;95.62;100151.12;1718967;83;21366;-66
2021/01/07 07:08:48;;;;;;;55.90;33.20;;;;;;;1.54;95.53;100147.25;1718910;83;21030;-66
2021/01/07 07:11:33;;;;;;;44.58;28.77;;;;;;;1.52;95.67;100150.28;1719031;83;21684;-68
2021/01/07 07:14:05;;;;;;;42.38;27.73;;;;;;;1.50;95.93;100145.17;1718177;83;20960;-66
2021/01/07 07:16:35;;;;;;;33.58;23.77;;;;;;;1.48;95.87;100153.34;1718650;83;21055;-66
2021/01/07 07:19:08;;;;;;;41.60;27.27;;;;;;;1.50;96.08;100159.29;1718956;83;21366;-68
2021/01/07 07:21:37;;;;;;;30.25;20.10;;;;;;;1.52;96.00;100152.85;1719023;83;21078;-67
2021/01/07 07:24:10;;;;;;;32.78;21.50;;;;;;;1.50;95.97;100154.59;1718982;83;20932;-67
2021/01/07 07:26:40;;;;;;;34.45;22.93;;;;;;;1.46;96.01;100147.38;1718905;83;20986;-66
2021/01/07 07:29:16;;;;;;;33.05;22.22;;;;;;;1.44;96.22;100151.70;1719027;83;21608;-67
2021/01/07 07:31:46;;;;;;;31.85;22.98;;;;;;;1.44;96.34;100142.71;1671209;83;21263;-67
2021/01/07 07:34:16;;;;;;;31.27;21.00;;;;;;;1.42;96.38;100139.33;1718868;83;20982;-66
2021/01/07 07:36:44;;;;;;;43.52;25.70;;;;;;;1.39;96.57;100133.40;1718865;83;21047;-66
2021/01/07 07:39:16;;;;;;;37.98;24.67;;;;;;;1.40;96.79;100137.66;1718952;83;20924;-67
2021/01/07 07:41:45;;;;;;;48.65;29.63;;;;;;;1.41;96.88;100127.38;1718970;83;21517;-66
2021/01/07 07:44:15;;;;;;;45.63;27.50;;;;;;;1.43;96.97;100122.21;1719019;83;21197;-68
2021/01/07 07:46:43;;;;;;;62.95;38.38;;;;;;;1.45;97.01;100125.59;1718920;83;21544;-68
2021/01/07 07:49:13;;;;;;;51.28;31.10;;;;;;;1.44;96.96;100118.78;1718960;83;21514;-67
2021/01/07 07:51:41;;;;;;;58.55;32.35;;;;;;;1.43;97.12;100112.80;1718959;83;21524;-67
2021/01/07 07:54:11;;;;;;;81.37;44.13;;;;;;;1.43;97.20;100105.10;1718413;83;36259;-66
2021/01/07 07:56:41;;;;;;;92.88;47.88;;;;;;;1.42;97.15;100104.69;1718939;83;21202;-66
2021/01/07 07:59:11;;;;;;;71.28;36.93;;;;;;;1.41;97.36;100106.00;1718865;83;21098;-67
2021/01/07 08:01:47;;;;;;;71.10;36.17;;;;;;;1.43;97.50;100098.69;1718989;83;21465;-66
2021/01/07 08:04:19;;;;;;;96.00;48.60;;;;;;;1.44;97.53;100094.41;1718610;83;21091;-68
2021/01/07 08:06:48;;;;;;;87.60;42.60;;;;;;;1.47;97.52;100104.17;1718990;83;21054;-64
2021/01/07 08:09:18;;;;;;;60.45;31.37;;;;;;;1.49;97.52;100096.02;1719048;83;21985;-66
2021/01/07 08:11:49;;;;;;;68.65;37.60;;;;;;;1.52;97.51;100098.96;1718885;83;21016;-65
2021/01/07 08:14:24;;;;;;;50.58;27.15;;;;;;;1.50;97.36;100090.45;1718992;83;21003;-66
2021/01/07 08:17:02;;;;;;;45.33;25.23;;;;;;;1.51;97.51;100083.16;1719079;83;21557;-67
2021/01/07 08:19:34;;;;;;;67.70;36.73;;;;;;;1.50;97.58;100083.59;1719019;83;21656;-65
2021/01/07 08:22:03;;;;;;;76.62;40.80;;;;;;;1.52;97.59;100072.02;1719014;83;21526;-66
2021/01/07 08:24:32;;;;;;;82.90;41.33;;;;;;;1.55;97.71;100075.38;1718890;83;20991;-67
2021/01/07 08:27:19;;;;;;;57.23;30.05;;;;;;;1.58;97.73;100072.75;1718963;83;21621;-66
2021/01/07 08:29:58;;;;;;;43.90;25.27;;;;;;;1.61;97.75;100061.55;1719069;83;21089;-66
2021/01/07 08:32:37;;;;;;;71.37;42.08;;;;;;;1.66;97.70;100063.59;1719003;83;21670;-66
2021/01/07 08:35:11;;;;;;;52.08;28.77;;;;;;;1.70;97.65;100047.70;1718942;83;22523;-66
2021/01/07 08:37:42;;;;;;;42.00;22.50;;;;;;;1.75;97.65;100051.03;1726341;82;21022;-65
2021/01/07 08:40:13;;;;;;;42.00;23.10;;;;;;;1.77;97.43;100033.44;1731917;82;20982;-66
2021/01/07 08:42:42;;;;;;;43.98;24.87;;;;;;;1.77;97.36;100025.73;1731914;82;21512;-64
2021/01/07 08:45:12;;;;;;;45.70;22.55;;;;;;;1.77;97.50;100019.31;1731894;82;21571;-66
2021/01/07 08:47:40;;;;;;;38.67;22.17;;;;;;;1.78;97.57;100013.74;1731879;82;22144;-67
2021/01/07 08:50:19;;;;;;;42.73;23.15;;;;;;;1.75;97.47;99999.25;1731816;82;20991;-66
2021/01/07 08:52:56;;;;;;;43.13;22.87;;;;;;;1.74;97.72;99998.00;1731903;82;21690;-65
2021/01/07 08:55:49;;;;;;;42.40;24.27;;;;;;;1.74;98.04;99986.00;1732055;82;21512;-67
2021/01/07 08:58:25;;;;;;;41.40;22.48;;;;;;;1.77;98.22;99983.38;1732064;82;21452;-65
2021/01/07 09:00:54;;;;;;;42.83;23.70;;;;;;;1.79;98.17;99977.77;1732176;82;21199;-66
2021/01/07 09:03:24;;;;;;;42.10;24.45;;;;;;;1.79;98.15;99975.64;1732008;82;21393;-67
2021/01/07 09:06:07;;;;;;;40.35;22.07;;;;;;;1.77;98.21;99971.83;1730969;82;21546;-67
2021/01/07 09:08:35;;;;;;;43.90;23.35;;;;;;;1.74;98.29;99964.19;1731235;82;21006;-66
2021/01/07 09:11:07;;;;;;;48.63;25.60;;;;;;;1.70;98.29;99961.28;1732092;82;21607;-67
2021/01/07 09:13:35;;;;;;;44.80;23.25;;;;;;;1.66;98.43;99959.66;1732101;82;22294;-66
2021/01/07 09:16:16;;;;;;;36.30;21.40;;;;;;;1.61;98.58;99970.01;1731918;82;21587;-65
2021/01/07 09:18:44;;;;;;;43.70;23.22;;;;;;;1.58;98.78;99961.56;1732085;82;21093;-67
2021/01/07 09:21:14;;;;;;;41.18;22.40;;;;;;;1.55;99.05;99962.47;1732031;82;20959;-67
2021/01/07 09:23:47;;;;;;;35.63;21.33;;;;;;;1.55;99.18;99956.48;1732117;82;21496;-67
2021/01/07 09:26:30;;;;;;;37.67;19.40;;;;;;;1.53;99.36;99949.26;1732063;82;21390;-68
2021/01/07 09:28:59;;;;;;;46.30;25.27;;;;;;;1.51;99.48;99950.57;1760361;81;21487;-68
2021/01/07 09:31:35;;;;;;;50.05;25.92;;;;;;;1.50;99.65;99948.03;1760475;81;21621;-67
2021/01/07 09:34:04;;;;;;;45.48;24.55;;;;;;;1.51;99.85;99938.18;1760421;81;20989;-68
2021/01/07 09:36:32;;;;;;;44.83;24.67;;;;;;;1.51;99.92;99932.61;1760392;81;21502;-69
2021/01/07 09:39:01;;;;;;;40.45;22.55;;;;;;;1.50;99.97;99919.38;1757750;81;21859;-67
2021/01/07 09:41:31;;;;;;;39.00;22.73;;;;;;;1.50;100.00;99916.81;1723625;83;20985;-69
2021/01/07 09:44:01;;;;;;;39.40;20.85;;;;;;;1.50;100.00;99919.81;1757506;81;21611;-69
2021/01/07 09:46:30;;;;;;;35.65;20.45;;;;;;;1.49;100.00;99909.98;1757678;81;21575;-68
2021/01/07 09:48:58;;;;;;;36.40;19.60;;;;;;;1.47;100.00;99909.61;1757749;81;21586;-67
2021/01/07 09:51:27;;;;;;;36.58;21.23;;;;;;;1.44;100.00;99896.41;1723753;83;22355;-68
2021/01/07 09:53:55;;;;;;;38.10;20.32;;;;;;;1.42;100.00;99895.59;1757629;81;21546;-68
2021/01/07 09:56:25;;;;;;;39.78;21.85;;;;;;;1.43;100.00;99888.74;1757692;81;20985;-69
2021/01/07 09:58:54;;;;;;;39.98;21.48;;;;;;;1.45;100.00;99877.57;1718917;83;20960;-67
2021/01/07 10:01:22;;;;;;;40.67;22.32;;;;;;;1.45;100.00;99878.01;1726204;83;20950;-68
2021/01/07 10:03:51;;;;;;;30.10;17.48;;;;;;;1.47;100.00;99875.82;1718977;83;22075;-67
2021/01/07 10:06:19;;;;;;;38.05;21.30;;;;;;;1.49;100.00;99874.50;1718506;83;21037;-67
2021/01/07 10:08:48;;;;;;;38.23;22.17;;;;;;;1.49;100.00;99861.23;1690239;84;21570;-67
2021/01/07 10:11:16;;;;;;;41.85;24.05;;;;;;;1.50;100.00;99854.38;1719067;83;20980;-68
2021/01/07 10:13:45;;;;;;;37.33;21.93;;;;;;;1.49;100.00;99856.55;1719034;83;20947;-68
2021/01/07 10:16:14;;;;;;;40.05;24.07;;;;;;;1.52;100.00;99850.91;1718999;83;21428;-68
2021/01/07 10:18:42;;;;;;;38.35;22.98;;;;;;;1.54;100.00;99848.31;1718953;83;21536;-68
2021/01/07 10:21:13;;;;;;;37.93;21.12;;;;;;;1.54;100.00;99835.04;1719072;83;21138;-68
2021/01/07 10:23:41;;;;;;;44.05;25.12;;;;;;;1.54;100.00;99835.04;1694202;83;21046;-67
2021/01/07 10:26:10;;;;;;;44.55;27.00;;;;;;;1.55;100.00;99830.75;1719027;83;21022;-67
2021/01/07 10:28:38;;;;;;;43.15;26.57;;;;;;;1.56;100.00;99826.87;1719006;83;21599;-67
2021/01/07 10:31:06;;;;;;;40.15;23.20;;;;;;;1.61;100.00;99819.03;1718957;83;20979;-67
2021/01/07 10:33:35;;;;;;;38.30;19.40;;;;;;;1.64;100.00;99813.39;1718961;83;21086;-66
2021/01/07 10:36:03;;;;;;;37.75;23.60;;;;;;;1.64;100.00;99808.70;1718951;83;20991;-68
2021/01/07 10:38:34;;;;;;;37.00;21.57;;;;;;;1.63;100.00;99802.72;1718969;83;20956;-67
2021/01/07 10:41:05;;;;;;;40.10;24.02;;;;;;;1.64;100.00;99801.84;1719090;83;21300;-66
2021/01/07 10:43:34;;;;;;;35.25;22.37;;;;;;;1.66;100.00;99801.81;1694531;83;21561;-67
2021/01/07 10:46:02;;;;;;;33.08;21.17;;;;;;;1.67;100.00;99793.23;1689054;85;21070;-66
2021/01/07 10:48:38;;;;;;;37.00;22.02;;;;;;;1.70;100.00;99789.31;1689753;84;21620;-69
2021/01/07 10:51:08;;;;;;;33.67;20.08;;;;;;;1.70;100.00;99793.59;1697762;84;21031;-68
2021/01/07 10:54:08;;;;;;;36.13;21.85;;;;;;;1.70;100.00;99788.47;1690255;84;22045;-68
2021/01/07 10:57:08;;;;;;;33.53;21.40;;;;;;;1.70;100.00;99791.88;1690103;85;21047;-68
2021/01/07 11:00:08;;;;;;;35.80;22.50;;;;;;;1.69;100.00;99786.34;1690283;85;21386;-67
2021/01/07 11:03:10;;;;;;;39.30;23.25;;;;;;;1.70;100.00;99775.20;1690120;85;20932;-67
2021/01/07 11:05:43;;;;;;;39.33;23.50;;;;;;;1.69;100.00;99773.51;1690200;85;21043;-67
2021/01/07 11:08:31;;;;;;;38.48;23.05;;;;;;;1.71;100.00;99770.46;1690071;85;21216;-67
2021/01/07 11:11:02;;;;;;;41.18;23.80;;;;;;;1.70;100.00;99770.06;1690213;85;21504;-68
2021/01/07 11:13:34;;;;;;;36.93;21.95;;;;;;;1.70;100.00;99758.51;1690238;85;21490;-66
2021/01/07 11:16:03;;;;;;;33.88;20.43;;;;;;;1.74;100.00;99754.15;1690108;83;20995;-67
2021/01/07 11:18:35;;;;;;;42.03;24.75;;;;;;;1.79;100.00;99753.59;1690189;85;21521;-66
2021/01/07 11:21:04;;;;;;;42.23;24.82;;;;;;;1.82;100.00;99745.82;1690274;85;22251;-67
2021/01/07 11:23:33;;;;;;;42.00;26.17;;;;;;;1.84;100.00;99745.34;1690073;85;20983;-67
2021/01/07 11:26:02;;;;;;;40.15;24.10;;;;;;;1.85;100.00;99738.05;1698252;84;21426;-66
2021/01/07 11:28:31;;;;;;;38.50;24.32;;;;;;;1.85;100.00;99733.75;1690085;85;21030;-67
2021/01/07 11:30:59;;;;;;;31.00;18.52;;;;;;;1.85;100.00;99731.19;1690166;85;20995;-67